createdAt,value
2017-11-16T00:00:55.384Z,11.22
2017-11-16T00:03:23.697Z,12.87
2017-11-16T00:05:52.014Z,12.20
2017-11-16T00:08:20.306Z,11.28
2017-11-16T00:10:48.641Z,11.55
2017-11-16T00:13:16.942Z,11.40
2017-11-16T00:15:45.253Z,10.22
2017-11-16T00:18:13.582Z,11.20
2017-11-16T00:20:41.882Z,12.15
2017-11-16T00:23:10.197Z,12.75
2017-11-16T00:25:38.493Z,11.42
2017-11-16T00:28:06.822Z,9.10
2017-11-16T00:30:35.150Z,14.65
2017-11-16T00:33:03.450Z,16.60
2017-11-16T00:35:31.762Z,9.50
2017-11-16T00:38:00.058Z,11.72
2017-11-16T00:40:28.386Z,15.13
2017-11-16T00:42:56.686Z,12.25
2017-11-16T00:45:25.030Z,11.03
2017-11-16T00:47:53.321Z,12.37
2017-11-16T00:50:21.623Z,12.18
2017-11-16T00:52:49.940Z,11.47
2017-11-16T00:55:18.241Z,12.62
2017-11-16T00:57:46.557Z,15.82
2017-11-16T01:00:14.849Z,11.70
2017-11-16T01:02:42.423Z,12.80
2017-11-16T01:05:10.725Z,13.60
2017-11-16T01:07:39.021Z,12.12
2017-11-16T01:10:07.340Z,11.83
2017-11-16T01:12:34.871Z,9.83
2017-11-16T01:15:03.188Z,11.82
2017-11-16T01:17:31.496Z,12.58
2017-11-16T01:19:59.824Z,13.52
2017-11-16T01:22:28.154Z,10.75
2017-11-16T01:24:56.497Z,13.62
2017-11-16T01:27:24.815Z,11.52
2017-11-16T01:29:53.127Z,13.85
2017-11-16T01:32:21.267Z,11.83
2017-11-16T01:34:49.593Z,16.63
2017-11-16T01:37:17.909Z,11.77
2017-11-16T01:39:46.214Z,14.50
2017-11-16T01:42:14.580Z,14.18
2017-11-16T01:44:42.875Z,14.43
2017-11-16T01:47:11.185Z,13.37
2017-11-16T01:49:38.758Z,14.03
2017-11-16T01:52:07.057Z,12.37
2017-11-16T01:54:35.374Z,15.30
2017-11-16T01:57:03.674Z,15.40
2017-11-16T01:59:31.306Z,13.63
2017-11-16T02:01:59.601Z,12.73
2017-11-16T02:04:27.932Z,13.50
2017-11-16T02:06:56.254Z,14.93
2017-11-16T02:09:24.549Z,13.40
2017-11-16T02:11:52.864Z,13.97
2017-11-16T02:14:21.162Z,13.32
2017-11-16T02:16:49.494Z,14.40
2017-11-16T02:19:17.789Z,15.08
2017-11-16T02:21:46.086Z,15.32
2017-11-16T02:24:14.410Z,12.97
2017-11-16T02:26:42.710Z,14.40
2017-11-16T02:29:11.037Z,13.97
2017-11-16T02:31:39.331Z,16.03
2017-11-16T02:34:07.697Z,12.83
2017-11-16T02:36:35.990Z,13.90
2017-11-16T02:39:04.295Z,10.65
2017-11-16T02:41:32.618Z,11.58
2017-11-16T02:44:00.909Z,18.17
2017-11-16T02:46:29.231Z,15.05
2017-11-16T02:48:56.754Z,11.33
2017-11-16T02:51:25.091Z,14.43
2017-11-16T02:53:53.392Z,12.30
2017-11-16T02:56:21.682Z,13.28
2017-11-16T02:58:50.007Z,11.98
2017-11-16T03:01:18.301Z,11.55
2017-11-16T03:03:46.621Z,13.23
2017-11-16T03:06:14.913Z,12.68
2017-11-16T03:08:43.245Z,13.88
2017-11-16T03:11:11.536Z,10.87
2017-11-16T03:13:39.825Z,11.65
2017-11-16T03:16:08.133Z,10.73
2017-11-16T03:18:36.425Z,16.53
2017-11-16T03:21:04.733Z,12.68
2017-11-16T03:23:33.022Z,13.90
2017-11-16T03:26:01.349Z,11.53
2017-11-16T03:28:29.638Z,19.27
2017-11-16T03:30:57.962Z,10.75
2017-11-16T03:33:26.295Z,11.10
2017-11-16T03:35:54.581Z,10.53
2017-11-16T03:38:22.885Z,13.27
2017-11-16T03:40:51.183Z,11.32
2017-11-16T03:43:19.533Z,10.38
2017-11-16T03:45:47.819Z,9.70
2017-11-16T03:48:16.174Z,11.17
2017-11-16T03:50:44.482Z,9.80
2017-11-16T03:53:12.773Z,8.65
2017-11-16T03:55:41.092Z,9.45
2017-11-16T03:58:09.380Z,12.50
2017-11-16T04:00:37.705Z,9.50
2017-11-16T04:03:05.984Z,8.30
2017-11-16T04:05:34.274Z,10.30
2017-11-16T04:08:02.577Z,8.47
2017-11-16T04:10:30.862Z,9.35
2017-11-16T04:12:59.192Z,8.37
2017-11-16T04:15:27.512Z,7.25
2017-11-16T04:17:55.789Z,7.08
2017-11-16T04:20:24.089Z,9.43
2017-11-16T04:22:52.375Z,8.00
2017-11-16T04:25:19.932Z,8.65
2017-11-16T04:27:48.217Z,10.85
2017-11-16T04:30:16.509Z,10.40
2017-11-16T04:32:44.828Z,9.50
2017-11-16T04:35:13.123Z,10.63
2017-11-16T04:37:41.454Z,9.05
2017-11-16T04:40:09.754Z,13.10
2017-11-16T04:42:38.058Z,12.63
2017-11-16T04:45:06.373Z,11.02
2017-11-16T04:47:34.674Z,11.33
2017-11-16T04:50:02.976Z,9.78
2017-11-16T04:52:31.265Z,9.88
2017-11-16T04:54:59.599Z,11.03
2017-11-16T04:57:27.929Z,9.83
2017-11-16T04:59:56.217Z,13.13
2017-11-16T05:02:24.529Z,10.60
2017-11-16T05:04:52.809Z,9.75
2017-11-16T05:07:21.118Z,9.70
2017-11-16T05:09:49.420Z,9.22
2017-11-16T05:12:17.768Z,11.47
2017-11-16T05:14:46.066Z,10.50
2017-11-16T05:17:14.382Z,11.68
2017-11-16T05:19:42.696Z,9.05
2017-11-16T05:22:10.986Z,8.62
2017-11-16T05:24:39.296Z,9.05
2017-11-16T05:27:07.594Z,15.60
2017-11-16T05:29:35.881Z,9.82
2017-11-16T05:32:04.193Z,8.58
2017-11-16T05:34:32.473Z,10.65
2017-11-16T05:37:00.783Z,9.03
2017-11-16T05:39:29.084Z,8.05
2017-11-16T05:41:57.398Z,11.57
2017-11-16T05:44:25.672Z,9.20
2017-11-16T05:46:53.964Z,11.68
2017-11-16T05:49:22.278Z,10.62
2017-11-16T05:51:50.564Z,9.53
2017-11-16T05:54:18.874Z,12.32
2017-11-16T05:56:47.168Z,22.43
2017-11-16T05:59:15.502Z,24.87
2017-11-16T06:01:43.801Z,12.78
2017-11-16T06:04:12.085Z,13.72
2017-11-16T06:06:40.402Z,12.90
2017-11-16T06:09:08.681Z,13.00
2017-11-16T06:11:37.002Z,10.50
2017-11-16T06:14:05.290Z,13.37
2017-11-16T06:16:33.613Z,10.93
2017-11-16T06:19:01.912Z,11.77
2017-11-16T06:21:30.219Z,12.07
2017-11-16T06:23:58.537Z,10.30
2017-11-16T06:26:26.824Z,13.28
2017-11-16T06:28:55.142Z,11.10
2017-11-16T06:31:23.438Z,14.70
2017-11-16T06:33:51.774Z,11.33
2017-11-16T06:36:20.072Z,11.37
2017-11-16T06:38:48.359Z,12.93
2017-11-16T06:41:16.710Z,9.65
2017-11-16T06:43:45.006Z,12.43
2017-11-16T06:46:13.319Z,10.42
2017-11-16T06:48:41.613Z,11.72
2017-11-16T06:51:09.939Z,14.85
2017-11-16T06:53:38.239Z,17.28
2017-11-16T06:56:06.576Z,15.78
2017-11-16T06:58:34.869Z,15.07
2017-11-16T07:01:03.169Z,16.53
2017-11-16T07:03:31.500Z,15.13
2017-11-16T07:05:59.782Z,12.82
2017-11-16T07:08:28.093Z,13.13
2017-11-16T07:10:56.373Z,9.93
2017-11-16T07:13:24.683Z,11.27
2017-11-16T07:15:52.976Z,11.02
2017-11-16T07:18:21.313Z,14.67
2017-11-16T07:20:49.645Z,13.07
2017-11-16T07:23:17.954Z,12.93
2017-11-16T07:25:46.241Z,15.03
2017-11-16T07:28:14.784Z,13.23
2017-11-16T07:30:43.125Z,20.98
2017-11-16T07:33:11.434Z,19.33
2017-11-16T07:35:39.764Z,12.45
2017-11-16T07:38:08.066Z,15.78
2017-11-16T07:40:36.395Z,12.80
2017-11-16T07:43:04.698Z,10.68
2017-11-16T07:45:33.012Z,12.53
2017-11-16T07:48:01.334Z,13.40
2017-11-16T07:50:31.651Z,11.57
2017-11-16T07:52:59.190Z,15.73
2017-11-16T07:55:27.518Z,16.65
2017-11-16T07:57:55.817Z,13.70
2017-11-16T08:00:24.130Z,12.25
2017-11-16T08:02:52.422Z,15.45
2017-11-16T08:05:19.990Z,12.07
2017-11-16T08:07:48.282Z,10.72
2017-11-16T08:10:16.601Z,13.25
2017-11-16T08:12:44.911Z,46.28
2017-11-16T08:15:13.249Z,15.53
2017-11-16T08:17:41.543Z,20.55
2017-11-16T08:20:09.871Z,28.02
2017-11-16T08:22:38.165Z,19.97
2017-11-16T08:25:06.490Z,22.33
2017-11-16T08:27:34.796Z,68.27
2017-11-16T08:30:03.113Z,38.67
2017-11-16T08:32:31.409Z,28.13
2017-11-16T08:34:59.726Z,34.33
2017-11-16T08:37:28.016Z,31.38
2017-11-16T08:39:56.334Z,33.07
2017-11-16T08:42:24.636Z,72.38
2017-11-16T08:44:52.956Z,40.58
2017-11-16T08:47:21.249Z,33.10
2017-11-16T08:49:49.569Z,27.18
2017-11-16T08:52:17.912Z,30.88
2017-11-16T08:54:46.260Z,27.48
2017-11-16T08:57:14.559Z,26.32
2017-11-16T08:59:42.881Z,41.72
2017-11-16T09:02:11.187Z,35.43
2017-11-16T09:04:39.525Z,23.72
2017-11-16T09:07:07.822Z,18.98
2017-11-16T09:09:36.122Z,29.42
2017-11-16T09:12:05.248Z,24.48
2017-11-16T09:14:33.545Z,24.77
2017-11-16T09:17:01.865Z,50.73
2017-11-16T09:19:30.158Z,32.07
2017-11-16T09:21:58.495Z,24.10
2017-11-16T09:24:26.794Z,24.17
2017-11-16T09:26:55.118Z,23.10
2017-11-16T09:29:22.646Z,23.25
2017-11-16T09:31:51.056Z,16.97
2017-11-16T09:34:19.361Z,17.48
2017-11-16T09:36:47.678Z,17.62
2017-11-16T09:39:15.978Z,16.97
2017-11-16T09:41:44.319Z,14.37
2017-11-16T09:44:12.618Z,18.52
2017-11-16T09:46:40.930Z,17.22
2017-11-16T09:49:09.254Z,16.23
2017-11-16T09:51:37.583Z,14.98
2017-11-16T09:54:05.879Z,11.92
2017-11-16T09:56:34.206Z,12.65
2017-11-16T09:59:02.498Z,16.58
2017-11-16T10:01:30.830Z,12.03
2017-11-16T10:03:59.128Z,10.93
2017-11-16T10:06:27.445Z,14.05
2017-11-16T10:08:55.742Z,13.08
2017-11-16T10:11:24.071Z,10.53
2017-11-16T10:13:52.377Z,9.48
2017-11-16T10:16:20.690Z,9.03
2017-11-16T10:18:48.986Z,8.57
2017-11-16T10:21:17.297Z,8.25
2017-11-16T10:23:45.601Z,11.25
2017-11-16T10:26:13.927Z,7.88
2017-11-16T10:28:42.226Z,7.78
2017-11-16T10:31:09.784Z,8.15
2017-11-16T10:33:38.080Z,9.68
2017-11-16T10:36:06.407Z,5.26
2017-11-16T10:38:34.718Z,6.85
2017-11-16T10:41:03.030Z,8.00
2017-11-16T10:43:31.327Z,7.32
2017-11-16T10:45:59.618Z,7.10
2017-11-16T10:48:27.942Z,6.18
2017-11-16T10:50:56.241Z,8.30
2017-11-16T10:53:24.553Z,9.18
2017-11-16T10:55:52.869Z,5.76
2017-11-16T10:58:21.186Z,5.28
2017-11-16T11:00:49.485Z,6.20
2017-11-16T11:03:17.035Z,9.52
2017-11-16T11:05:45.367Z,5.62
2017-11-16T11:08:12.917Z,5.68
2017-11-16T11:10:40.454Z,6.44
2017-11-16T11:13:08.001Z,8.52
2017-11-16T11:15:36.293Z,5.28
2017-11-16T11:18:03.848Z,5.54
2017-11-16T11:20:31.379Z,5.68
2017-11-16T11:22:58.933Z,7.14
2017-11-16T11:25:26.466Z,6.02
2017-11-16T11:27:54.777Z,13.40
2017-11-16T11:30:22.307Z,4.90
2017-11-16T11:32:49.874Z,6.72
2017-11-16T11:35:17.406Z,5.28
2017-11-16T11:37:45.718Z,6.14
2017-11-16T11:40:13.257Z,7.68
2017-11-16T11:42:40.818Z,6.10
2017-11-16T11:45:09.127Z,8.26
2017-11-16T11:47:37.454Z,4.14
2017-11-16T11:50:04.990Z,5.20
2017-11-16T11:52:33.313Z,6.56
2017-11-16T11:55:00.836Z,6.62
2017-11-16T11:57:29.154Z,7.42
2017-11-16T11:59:56.677Z,5.30
2017-11-16T12:02:24.230Z,9.42
2017-11-16T12:04:51.757Z,5.94
2017-11-16T12:07:20.074Z,7.16
2017-11-16T12:09:47.598Z,8.26
2017-11-16T12:12:15.176Z,5.78
2017-11-16T12:14:42.702Z,5.86
2017-11-16T12:17:10.989Z,6.54
2017-11-16T12:19:38.530Z,7.20
2017-11-16T12:22:06.052Z,4.84
2017-11-16T12:24:33.607Z,8.40
2017-11-16T12:27:01.908Z,4.64
2017-11-16T12:29:29.458Z,4.90
2017-11-16T12:31:56.993Z,4.48
2017-11-16T12:34:25.304Z,4.38
2017-11-16T12:36:53.606Z,5.04
2017-11-16T12:39:21.148Z,7.12
2017-11-16T12:41:48.669Z,5.06
2017-11-16T12:44:16.213Z,5.92
2017-11-16T12:46:44.501Z,4.86
2017-11-16T12:49:12.046Z,6.10
2017-11-16T12:51:40.347Z,6.84
2017-11-16T12:54:07.902Z,7.28
2017-11-16T12:56:36.193Z,4.56
2017-11-16T12:59:03.750Z,4.52
2017-11-16T13:01:31.268Z,4.72
2017-11-16T13:03:58.817Z,4.46
2017-11-16T13:06:27.115Z,6.98
2017-11-16T13:08:54.666Z,4.82
2017-11-16T13:11:22.190Z,5.84
2017-11-16T13:13:49.738Z,3.86
2017-11-16T13:16:18.039Z,5.68
2017-11-16T13:18:45.587Z,5.38
2017-11-16T13:21:13.121Z,5.40
2017-11-16T13:23:40.675Z,5.62
2017-11-16T13:26:09.011Z,5.42
2017-11-16T13:28:36.562Z,5.10
2017-11-16T13:31:04.871Z,5.02
2017-11-16T13:33:32.418Z,4.70
2017-11-16T13:36:00.706Z,5.24
2017-11-16T13:38:28.261Z,4.10
2017-11-16T13:40:55.785Z,3.70
2017-11-16T13:43:23.318Z,5.10
2017-11-16T13:45:51.629Z,4.64
2017-11-16T13:48:19.161Z,3.62
2017-11-16T13:50:46.706Z,3.42
2017-11-16T13:53:14.246Z,8.42
2017-11-16T13:55:42.567Z,3.80
2017-11-16T13:58:10.861Z,3.64
2017-11-16T14:00:38.401Z,3.60
2017-11-16T14:03:05.939Z,3.16
2017-11-16T14:05:34.258Z,3.46
2017-11-16T14:08:01.788Z,4.10
2017-11-16T14:10:29.333Z,4.74
2017-11-16T14:12:56.888Z,4.76
2017-11-16T14:15:24.442Z,3.86
2017-11-16T14:17:52.736Z,5.94
2017-11-16T14:20:20.285Z,3.78
2017-11-16T14:22:47.806Z,5.46
2017-11-16T14:25:15.358Z,4.54
2017-11-16T14:27:43.654Z,4.18
2017-11-16T14:30:11.214Z,6.06
2017-11-16T14:32:38.744Z,6.78
2017-11-16T14:35:06.300Z,19.72
2017-11-16T14:37:34.595Z,5.40
2017-11-16T14:40:02.154Z,8.22
2017-11-16T14:42:30.437Z,5.00
2017-11-16T14:44:57.983Z,5.76
2017-11-16T14:47:26.273Z,4.50
2017-11-16T14:49:53.830Z,4.20
2017-11-16T14:52:21.357Z,25.06
2017-11-16T14:54:48.905Z,7.00
2017-11-16T14:57:17.197Z,4.82
2017-11-16T14:59:44.754Z,6.40
2017-11-16T15:02:12.282Z,4.90
2017-11-16T15:04:39.854Z,4.06
2017-11-16T15:07:08.142Z,5.10
2017-11-16T15:09:35.677Z,4.52
2017-11-16T15:12:03.235Z,4.84
2017-11-16T15:14:30.757Z,4.62
2017-11-16T15:16:59.067Z,4.88
2017-11-16T15:19:26.597Z,7.80
2017-11-16T15:21:54.145Z,7.54
2017-11-16T15:24:21.674Z,9.32
2017-11-16T15:26:49.985Z,5.92
2017-11-16T15:29:17.505Z,5.20
2017-11-16T15:31:45.054Z,6.52
2017-11-16T15:34:12.575Z,7.60
2017-11-16T15:36:40.969Z,6.62
2017-11-16T15:39:08.493Z,6.36
2017-11-16T15:41:36.035Z,7.06
2017-11-16T15:44:03.567Z,7.84
2017-11-16T15:46:31.882Z,10.24
2017-11-16T15:49:00.178Z,6.78
2017-11-16T15:51:27.729Z,7.78
2017-11-16T15:53:55.257Z,6.22
2017-11-16T15:56:23.570Z,8.10
2017-11-16T15:58:51.110Z,8.44
2017-11-16T16:01:18.663Z,6.37
2017-11-16T16:03:46.197Z,7.10
2017-11-16T16:06:14.513Z,6.48
2017-11-16T16:08:42.030Z,6.96
2017-11-16T16:11:09.578Z,5.40
2017-11-16T16:13:37.101Z,5.18
2017-11-16T16:16:05.411Z,8.40
2017-11-16T16:18:32.935Z,5.58
2017-11-16T16:21:00.485Z,6.38
2017-11-16T16:23:28.018Z,5.38
2017-11-16T16:25:56.332Z,6.85
2017-11-16T16:28:23.857Z,6.04
2017-11-16T16:30:51.427Z,8.58
2017-11-16T16:33:18.953Z,9.36
2017-11-16T16:35:47.247Z,8.50
2017-11-16T16:38:14.803Z,9.06
2017-11-16T16:40:42.335Z,8.70
2017-11-16T16:43:09.889Z,10.33
2017-11-16T16:45:38.185Z,8.50
2017-11-16T16:48:05.742Z,9.82
2017-11-16T16:50:33.265Z,9.53
2017-11-16T16:53:00.811Z,7.06
2017-11-16T16:55:28.344Z,6.80
2017-11-16T16:57:56.653Z,6.62
2017-11-16T17:00:25.893Z,7.50
2017-11-16T17:02:53.445Z,7.82
2017-11-16T17:05:20.961Z,10.68
2017-11-16T17:07:49.278Z,9.64
2017-11-16T17:10:16.797Z,7.20
2017-11-16T17:12:44.354Z,7.50
2017-11-16T17:15:11.881Z,6.38
2017-11-16T17:17:40.193Z,9.92
2017-11-16T17:20:07.721Z,9.48
2017-11-16T17:22:35.270Z,9.34
2017-11-16T17:25:02.793Z,8.78
2017-11-16T17:27:31.109Z,7.93
2017-11-16T17:29:58.637Z,8.60
2017-11-16T17:32:26.289Z,9.40
2017-11-16T17:34:53.831Z,15.83
2017-11-16T17:37:22.160Z,13.98
2017-11-16T17:39:49.694Z,10.83
2017-11-16T17:42:17.245Z,10.88
2017-11-16T17:44:44.777Z,8.50
2017-11-16T17:47:13.108Z,12.38
2017-11-16T17:49:40.637Z,10.66
2017-11-16T17:52:08.182Z,11.07
2017-11-16T17:54:36.484Z,10.52
2017-11-16T17:57:04.821Z,7.86
2017-11-16T17:59:32.342Z,8.90
2017-11-16T18:01:59.865Z,9.70
2017-11-16T18:04:28.186Z,10.58
2017-11-16T18:06:56.490Z,9.07
2017-11-16T18:09:24.050Z,10.54
2017-11-16T18:11:51.574Z,9.82
2017-11-16T18:14:19.122Z,10.08
2017-11-16T18:16:47.405Z,9.92
2017-11-16T18:19:14.962Z,9.45
2017-11-16T18:21:42.493Z,10.03
2017-11-16T18:24:10.045Z,8.62
2017-11-16T18:26:38.330Z,11.22
2017-11-16T18:29:05.881Z,9.58
2017-11-16T18:31:33.405Z,9.32
2017-11-16T18:34:00.957Z,8.05
2017-11-16T18:36:29.249Z,9.06
2017-11-16T18:38:56.823Z,7.88
2017-11-16T18:41:24.369Z,10.15
2017-11-16T18:43:51.920Z,9.92
2017-11-16T18:46:20.222Z,12.72
2017-11-16T18:48:47.765Z,10.20
2017-11-16T18:51:15.298Z,12.83
2017-11-16T18:53:42.853Z,15.27
2017-11-16T18:56:11.146Z,17.37
2017-11-16T18:58:38.703Z,14.77
2017-11-16T19:01:06.225Z,11.96
2017-11-16T19:03:33.777Z,16.68
2017-11-16T19:06:02.078Z,16.67
2017-11-16T19:08:29.635Z,14.50
2017-11-16T19:10:57.174Z,19.40
2017-11-16T19:13:24.735Z,15.92
2017-11-16T19:15:53.034Z,15.07
2017-11-16T19:18:20.581Z,11.96
2017-11-16T19:20:48.106Z,12.70
2017-11-16T19:23:15.667Z,14.03
2017-11-16T19:25:44.003Z,14.40
2017-11-16T19:28:11.538Z,13.08
2017-11-16T19:30:39.098Z,18.70
2017-11-16T19:33:06.634Z,17.28
2017-11-16T19:35:34.950Z,18.08
2017-11-16T19:38:02.490Z,16.22
2017-11-16T19:40:30.047Z,15.68
2017-11-16T19:42:57.573Z,21.14
2017-11-16T19:45:25.122Z,15.72
2017-11-16T19:47:53.421Z,14.94
2017-11-16T19:50:20.981Z,18.72
2017-11-16T19:52:48.519Z,17.36
2017-11-16T19:55:16.098Z,16.70
2017-11-16T19:57:44.405Z,20.68
2017-11-16T20:00:13.736Z,20.42
2017-11-16T20:02:41.319Z,16.87
2017-11-16T20:05:08.873Z,25.08
2017-11-16T20:07:37.170Z,21.72
2017-11-16T20:10:04.737Z,17.83
2017-11-16T20:12:32.283Z,25.62
2017-11-16T20:14:59.838Z,28.50
2017-11-16T20:17:28.214Z,22.15
2017-11-16T20:19:55.784Z,15.90
2017-11-16T20:22:23.330Z,16.96
2017-11-16T20:24:51.637Z,21.38
2017-11-16T20:27:19.925Z,21.52
2017-11-16T20:29:48.245Z,20.66
2017-11-16T20:32:15.777Z,19.80
2017-11-16T20:34:43.349Z,18.92
2017-11-16T20:37:17.236Z,19.32
2017-11-16T20:39:50.348Z,14.98
2017-11-16T20:42:33.519Z,19.28
2017-11-16T20:45:19.802Z,19.14
2017-11-16T20:47:51.550Z,19.90
2017-11-16T20:50:24.781Z,21.43
2017-11-16T20:52:56.805Z,19.08
2017-11-16T20:55:29.982Z,23.52
2017-11-16T20:57:58.285Z,21.48
2017-11-16T21:00:25.959Z,19.75
2017-11-16T21:02:53.518Z,23.48
2017-11-16T21:05:21.068Z,23.32
2017-11-16T21:07:49.398Z,20.23
2017-11-16T21:10:16.933Z,17.94
2017-11-16T21:12:44.495Z,18.60
2017-11-16T21:15:12.802Z,23.40
2017-11-16T21:17:41.134Z,16.77
2017-11-16T21:20:08.677Z,18.94
2017-11-16T21:22:36.206Z,18.86
2017-11-16T21:25:03.769Z,17.42
2017-11-16T21:27:32.089Z,19.15
2017-11-16T21:30:00.414Z,27.33
2017-11-16T21:32:27.945Z,18.80
2017-11-16T21:34:55.505Z,23.23
2017-11-16T21:37:23.801Z,24.58
2017-11-16T21:39:51.377Z,22.35
2017-11-16T21:42:18.904Z,19.16
2017-11-16T21:44:46.442Z,21.52
2017-11-16T21:47:16.690Z,21.80
2017-11-16T21:49:44.221Z,19.67
2017-11-16T21:52:11.778Z,19.98
2017-11-16T21:54:40.082Z,17.13
2017-11-16T21:57:08.478Z,22.44
2017-11-16T21:59:36.786Z,24.90
2017-11-16T22:02:04.369Z,21.77
2017-11-16T22:04:31.913Z,17.97
2017-11-16T22:07:00.218Z,37.87
2017-11-16T22:09:27.777Z,26.94
2017-11-16T22:11:55.314Z,26.40
2017-11-16T22:14:23.652Z,33.97
2017-11-16T22:16:51.958Z,31.25
2017-11-16T22:19:19.505Z,49.93
2017-11-16T22:21:47.054Z,30.82
2017-11-16T22:24:14.594Z,35.58
2017-11-16T22:26:42.971Z,32.27
2017-11-16T22:29:10.469Z,27.35
2017-11-16T22:31:38.006Z,27.93
2017-11-16T22:34:06.318Z,19.14
2017-11-16T22:36:34.619Z,21.70
2017-11-16T22:39:02.201Z,16.60
2017-11-16T22:41:29.738Z,19.46
2017-11-16T22:43:57.270Z,20.33
2017-11-16T22:46:25.594Z,17.06
2017-11-16T22:48:53.125Z,19.38
2017-11-16T22:51:20.692Z,21.56
2017-11-16T22:53:48.987Z,19.60
2017-11-16T22:56:17.281Z,18.97
2017-11-16T22:58:44.825Z,22.56
2017-11-16T23:01:12.363Z,19.08
2017-11-16T23:03:39.925Z,20.60
2017-11-16T23:06:08.217Z,17.94
2017-11-16T23:08:35.754Z,17.38
2017-11-16T23:11:03.302Z,24.56
2017-11-16T23:13:30.836Z,18.14
2017-11-16T23:15:59.150Z,19.54
2017-11-16T23:18:26.677Z,26.24
2017-11-16T23:20:54.971Z,22.52
2017-11-16T23:23:22.543Z,20.46
2017-11-16T23:25:50.841Z,22.10
2017-11-16T23:28:18.391Z,19.22
2017-11-16T23:30:45.914Z,24.18
2017-11-16T23:33:13.509Z,18.40
2017-11-16T23:35:41.803Z,20.64
2017-11-16T23:38:09.330Z,21.98
2017-11-16T23:40:36.875Z,21.82
2017-11-16T23:43:04.401Z,24.04
2017-11-16T23:45:32.714Z,19.54
2017-11-16T23:48:00.245Z,21.74
2017-11-16T23:50:27.817Z,20.70
2017-11-16T23:52:55.350Z,20.44
2017-11-16T23:55:23.633Z,18.12
2017-11-16T23:57:53.936Z,23.40
